Weather observations for the past three days for
Boone Municipal
Imperial (Metric)
Date Time (cdt) Wind (mph) Vis. (mi.) Weather Sky Cond. Temperature (ºF) Relative Humidity Wind Chill (°F) Heat Index (°F) Pressure Precipitation (in)
Air Dwpt 6 hour altimeter (in) sea level (mb) 1 hr 3 hr 6 hr
Max. Min.
01 18:55 S 5 10.00 Fair CLR 87.8 73.4 62% 96 29.87 0.0
01 18:35 S 5 10.00 Fair CLR 89.6 73.4 59% 98 29.87 0.0
01 18:15 S 5 10.00 Fair CLR 89.6 73.4 59% 98 29.87 0.0
01 17:55 Vrbl 5 10.00 Fair CLR 91.4 73.4 56% 100 29.87 0.0
01 17:35 Vrbl 5 G 12 10.00 Fair CLR 91.4 73.4 56% 100 29.87 0.0
01 17:15 S 9 G 16 10.00 Fair CLR 91.4 71.6 52% 99 29.88 0.0
01 16:55 S 8 10.00 Fair CLR 91.4 73.4 56% 100 29.88 0.0
01 16:35 S 8 10.00 Fair CLR 91.4 71.6 52% 99 29.88 0.0
01 16:15 S 8 G 15 10.00 Fair CLR 91.4 71.6 52% 99 29.88 0.0
01 15:55 Vrbl 7 G 13 10.00 Fair CLR 91.4 71.6 52% 99 29.89 0.0
01 15:35 Vrbl 5 G 12 10.00 Fair CLR 91.4 71.6 52% 99 29.9 0.0
01 15:15 SW 7 10.00 Fair CLR 91.4 71.6 52% 99 29.91 0.0
01 14:55 Vrbl 7 10.00 Fair CLR 91.4 71.6 52% 99 29.91 0.0
01 14:35 S 7 10.00 Fair CLR 89.6 71.6 55% 96 29.92 0.0
01 14:15 Vrbl 7 9.00 Fair CLR 89.6 71.6 55% 96 29.92 0.0
01 13:55 SW 7 10.00 Fair CLR 89.6 71.6 55% 96 29.92 0.0
01 13:35 Vrbl 3 10.00 Fair CLR 89.6 73.4 59% 98 29.93 0.0
01 13:15 Vrbl 3 10.00 Fair CLR 89.6 73.4 59% 98 29.94 0.0
01 12:55 SW 3 10.00 Fair CLR 89.6 71.6 55% 96 29.94 0.0
01 12:35 Calm 10.00 Fair CLR 87.8 71.6 59% 94 29.94 0.0
01 12:15 Vrbl 6 10.00 Fair CLR 87.8 71.6 59% 94 29.95 0.0
01 11:55 S 5 10.00 Fair CLR 87.8 71.6 59% 94 29.95 0.0
01 11:35 SW 5 10.00 Fair CLR 86 73.4 66% 93 29.95 0.0
01 11:15 S 3 10.00 Fair CLR 86 73.4 66% 93 29.94 0.0
01 10:55 SW 5 10.00 Fair CLR 84.2 73.4 70% 91 29.94 0.0
01 10:35 Vrbl 5 10.00 Fair CLR 84.2 75.2 74% 92 29.95 0.0
01 10:15 Calm 10.00 Fair CLR 82.4 75.2 79% 89 29.95 0.0
01 09:55 S 5 10.00 Fair CLR 82.4 77 84% 91 29.94 0.0
01 09:35 SE 3 10.00 Fair CLR 80.6 77 89% 87 29.95 0.0
01 09:15 SE 6 9.00 A Few Clouds FEW110 78.8 77 94% 83 29.95 0.0
01 08:50 SE 5 6.00 Fog/Mist CLR 78.8 77 94% 83 29.95 0.0
01 08:35 E 5 3.00 Fog/Mist CLR 77 77 100% 78 29.95 0.0
01 08:15 E 5 2.00 Fog/Mist CLR 75.2 75.2 100% 73 29.96 0.0
01 07:55 SE 5 1.50 Fog/Mist CLR 75.2 75.2 100% 73 29.95 0.0
01 07:35 E 3 0.75 Fog/Mist VV005 75.2 75.2 100% 73 29.95 0.0
01 07:15 Calm 0.50 Fog/Mist VV005 73.4 73.4 100% 29.95 0.0
01 06:55 Calm 1.50 Fog/Mist NULL 73.4 73.4 100% 29.95 0.0
01 06:35 Calm 2.50 Fog/Mist NULL 75.2 75.2 100% 73 29.94 0.0
01 06:15 SE 6 4.00 Fog/Mist NULL 75.2 75.2 100% 73 29.94 0.0
01 05:55 SE 6 3.00 Fog/Mist NULL 73.4 73.4 100% 29.93 0.0
01 05:35 SE 5 4.00 Fog/Mist NULL 73.4 73.4 100% 29.94 0.0
01 05:15 SE 5 6.00 Fog/Mist NULL 73.4 73.4 100% 29.94 0.0
01 04:55 SE 6 6.00 Fog/Mist NULL 73.4 73.4 100% 29.94 0.0
01 04:35 SE 5 7.00 Fair CLR 73.4 73.4 100% 29.94 0.0
01 04:15 Calm 4.00 Fog/Mist CLR 73.4 73.4 100% 29.94 0.0
01 03:55 Calm 6.00 Fog/Mist CLR 73.4 73.4 100% 29.94 0.0
01 03:35 Calm 5.00 Fog/Mist FEW100 73.4 73.4 100% 29.93 0.0
01 03:15 Calm 9.00 NULL NULL 73.4 73.4 100% 29.94 0.0
01 02:55 Calm 10.00 NULL NULL 75.2 75.2 100% 73 29.95 0.0
01 02:35 Calm 9.00 NULL NULL 75.2 75.2 100% 73 29.95 0.0
01 02:15 Calm 8.00 NULL NULL 75.2 75.2 100% 73 29.94 0.0
01 01:55 Calm 6.00 Fog/Mist NULL 73.4 73.4 100% 29.95 0.0
01 01:35 S 3 8.00 Mostly Cloudy FEW018 FEW027 BKN100 75.2 75.2 100% 73 29.96 0.0
01 01:15 Calm 9.00 A Few Clouds FEW017 FEW024 FEW033 75.2 75.2 100% 73 29.96 0.0
01 00:55 Calm 8.00 NULL NULL 75.2 75.2 100% 73 29.95 0.0
01 00:35 Calm 8.00 Fair CLR 75.2 75.2 100% 73 29.95 0.0
01 00:15 Calm 9.00 Fair CLR 75.2 75.2 100% 73 29.95 0.0
31 23:55 Calm 10.00 NULL NULL 77 77 100% 78 29.94 0.0
31 23:35 N 3 10.00 NULL NULL 75.2 75.2 100% 73 29.93 0.0
31 23:15 Calm 9.00 Fair CLR 77 77 100% 78 29.93 0.0
31 22:55 Calm 9.00 Fair CLR 77 77 100% 78 29.93 0.0
31 22:35 Calm 10.00 Fair CLR 75.2 75.2 100% 73 29.93 0.0
31 22:15 Calm 10.00 Fair CLR 77 77 100% 78 29.93 0.0
31 21:55 Calm 10.00 Fair CLR 78.8 77 94% 83 29.92 0.0
31 21:35 Calm 10.00 Fair CLR 80.6 77 89% 87 29.92 0.0
31 21:15 Calm 10.00 Fair CLR 78.8 77 94% 83 29.92 0.0
31 20:55 Calm 10.00 Fair CLR 82.4 78.8 89% 92 29.92 0.0
31 20:35 Calm 10.00 A Few Clouds FEW030 80.6 78.8 94% 88 29.91 0.0
31 20:15 Calm 10.00 Fair CLR 82.4 78.8 89% 92 29.91 0.0
31 19:55 Calm 10.00 Fair CLR 82.4 78.8 89% 92 29.91 0.0
31 19:35 Calm 10.00 Fair CLR 84.2 78.8 84% 96 29.9 0.0
31 19:15 SW 5 10.00 Fair CLR 86 78.8 79% 99 29.9 0.0
31 18:35 SW 3 10.00 Fair CLR 87.8 78.8 75% 102 29.89 0.0
31 18:15 SW 6 10.00 Fair CLR 87.8 77 70% 100 29.9 0.0
31 17:55 W 7 10.00 Fair CLR 89.6 75.2 63% 100 29.89 0.0
31 17:35 W 9 10.00 Fair CLR 89.6 75.2 63% 100 29.89 0.0
31 17:15 W 9 10.00 Fair CLR 89.6 77 67% 103 29.89 0.0
31 16:55 W 7 10.00 Fair CLR 89.6 77 67% 103 29.89 0.0
31 16:35 W 9 10.00 Fair CLR 89.6 75.2 63% 100 29.89 0.0
31 16:15 SW 9 10.00 Fair CLR 89.6 77 67% 103 29.89 0.0
31 15:55 W 9 10.00 Fair CLR 87.8 77 70% 100 29.89 0.0
31 15:35 W 8 10.00 Fair CLR 89.6 78.8 71% 105 29.89 0.0
31 15:15 SW 9 G 15 10.00 Fair CLR 89.6 77 67% 103 29.89 0.0
31 14:55 Vrbl 7 10.00 Fair CLR 87.8 78.8 75% 102 29.89 0.0
31 14:35 SW 8 10.00 Fair CLR 87.8 77 70% 100 29.89 0.0
31 14:15 Vrbl 6 10.00 Fair CLR 87.8 77 70% 100 29.89 0.0
31 13:55 W 9 10.00 Fair CLR 87.8 77 70% 100 29.89 0.0
31 13:35 W 9 10.00 Fair CLR 86 77 75% 97 29.89 0.0
31 13:15 SW 7 10.00 Fair CLR 86 77 75% 97 29.9 0.0
31 12:55 Vrbl 6 10.00 Fair CLR 86 75.2 70% 95 29.88 0.0
31 12:35 SE 6 10.00 Fair CLR 84.2 75.2 74% 92 29.87 0.0
31 12:15 Calm 10.00 Fair CLR 84.2 73.4 70% 91 29.87 0.0
31 11:55 NW 3 10.00 Fair CLR 84.2 73.4 70% 91 29.89 0.0
31 11:35 Vrbl 5 10.00 Fair CLR 82.4 73.4 74% 88 29.88 0.0
31 11:15 Vrbl 5 10.00 Fair CLR 80.6 73.4 79% 85 29.88 0.0
31 10:55 Vrbl 5 10.00 Fair CLR 80.6 71.6 74% 85 29.88 0.0
31 10:35 SW 7 10.00 Fair CLR 78.8 71.6 79% 82 29.88 0.0
31 10:15 SW 9 10.00 Fair CLR 78.8 71.6 79% 82 29.89 0.0
31 09:55 SW 8 10.00 Fair CLR 77 69.8 79% 79 29.88 0.0
31 09:35 SW 9 G 16 10.00 Fair CLR 77 69.8 79% 79 29.87 0.0
31 09:15 W 8 10.00 Fair CLR 75.2 69.8 83% 75 29.87 0.0
31 08:55 SW 7 0.00 Fair CLR 73.4 68 83% 29.88 0.0
31 08:35 SW 7 10.00 Fair CLR 73.4 68 83% 29.87 0.0
31 08:15 SW 6 10.00 Fair CLR 73.4 68 83% 29.85 0.0
31 07:55 Vrbl 6 10.00 Fair CLR 73.4 68 83% 29.85 0.0
31 07:35 SW 6 10.00 Fair CLR 73.4 68 83% 29.84 0.0
31 07:15 SW 5 10.00 Fair CLR 73.4 68 83% 29.84 0.0
31 06:55 SW 6 10.00 Fair CLR 71.6 68 88% 29.83 0.0
31 06:35 SW 6 10.00 Fair CLR 71.6 68 88% 29.83 0.0
31 06:15 SW 7 10.00 Fair CLR 71.6 68 88% 29.82 0.0
31 05:55 SW 6 10.00 Fair CLR 73.4 68 83% 29.82 0.0
31 05:35 SW 7 10.00 Fair CLR 73.4 68 83% 29.82 0.0
31 05:15 SW 6 10.00 Fair CLR 73.4 68 83% 29.81 0.0
31 04:55 SW 6 10.00 Fair CLR 73.4 68 83% 29.81 0.0
31 04:35 SW 7 10.00 Fair CLR 75.2 68 78% 76 29.81 0.0
31 04:15 SW 8 10.00 Fair CLR 75.2 68 78% 76 29.81 0.0
31 03:55 SW 7 10.00 Fair CLR 77 68 74% 79 29.81 0.0
31 03:35 SW 8 10.00 Fair CLR 77 68 74% 79 29.81 0.0
31 03:15 SW 9 G 16 10.00 Fair CLR 77 68 74% 79 29.81 0.0
31 02:55 S 7 10.00 Fair CLR 75.2 69.8 83% 75 29.8 0.0
31 02:35 S 6 10.00 Fair CLR 75.2 69.8 83% 75 29.81 0.0
31 02:15 S 7 10.00 Fair CLR 75.2 69.8 83% 75 29.81 0.0
31 01:55 S 6 G 12 10.00 Fair CLR 75.2 69.8 83% 75 29.81 0.0
31 01:35 Vrbl 6 10.00 Fair CLR 75.2 71.6 89% 75 29.81 0.0
31 01:15 Vrbl 6 10.00 Fair CLR 75.2 71.6 89% 75 29.81 0.0
31 00:55 S 3 10.00 Fair CLR 73.4 71.6 94% 29.82 0.0
31 00:35 S 3 10.00 Fair CLR 75.2 73.4 94% 74 29.82 0.0
30 23:55 Calm 10.00 Fair CLR 75.2 73.4 94% 74 29.82 0.0
30 23:35 SE 3 10.00 Fair CLR 75.2 73.4 94% 74 29.82 0.0
30 23:15 SE 5 10.00 Fair CLR 75.2 75.2 100% 73 29.81 0.0
30 22:55 SE 3 10.00 NULL NULL 75.2 75.2 100% 73 29.82 0.0
30 22:35 SE 5 10.00 NULL NULL 75.2 75.2 100% 73 29.82 0.0
30 22:15 SE 5 10.00 Fair CLR 75.2 75.2 100% 73 29.82 0.0
30 21:55 SE 5 10.00 Fair CLR 75.2 75.2 100% 73 29.82 0.0
30 21:35 SE 7 10.00 Fair CLR 75.2 75.2 100% 73 29.82 0.0
30 21:15 SE 6 10.00 Fair CLR 75.2 75.2 100% 73 29.82 0.0
30 20:55 SE 7 10.00 Fair CLR 75.2 75.2 100% 73 29.82 0.0
30 20:35 SE 7 10.00 Fair CLR 77 75.2 94% 78 29.82 0.0
30 20:15 SE 7 10.00 Fair CLR 77 75.2 94% 78 29.82 0.0
30 19:55 SE 8 10.00 Fair CLR 77 75.2 94% 78 29.81 0.0
30 19:35 SE 7 10.00 Fair CLR 78.8 75.2 89% 82 29.81 0.0
30 19:15 SE 9 10.00 Fair CLR 78.8 75.2 89% 82 29.81 0.0
30 18:55 SE 8 10.00 Fair CLR 78.8 75.2 89% 82 29.81 0.0
30 18:35 SE 7 10.00 Fair CLR 78.8 75.2 89% 82 29.81 0.0
30 18:15 SE 9 10.00 Fair CLR 78.8 75.2 89% 82 29.8 0.0
30 17:55 SE 9 G 16 10.00 Fair CLR 80.6 75.2 84% 86 29.81 0.0
30 17:35 SE 12 10.00 Fair CLR 80.6 73.4 79% 85 29.81 0.0
30 17:15 SE 8 G 15 10.00 Fair CLR 80.6 73.4 79% 85 29.8 0.0
30 16:55 S 12 G 17 10.00 Fair CLR 80.6 71.6 74% 85 29.8 0.0
30 16:35 S 10 G 16 8.00 Fair CLR 80.6 71.6 74% 85 29.81 0.0
30 16:15 S 7 G 15 10.00 Fair CLR 80.6 71.6 74% 85 29.82 0.0
30 15:55 S 12 G 18 10.00 Fair CLR 80.6 71.6 74% 85 29.81 0.0
30 15:35 S 9 G 15 10.00 Fair CLR 80.6 71.6 74% 85 29.81 0.0
30 15:15 S 8 G 14 10.00 Fair CLR 80.6 71.6 74% 85 29.82 0.0
30 14:55 S 12 G 18 10.00 A Few Clouds FEW075 FEW085 78.8 69.8 74% 81 29.82 0.0
30 14:35 S 10 10.00 Fair CLR 80.6 71.6 74% 85 29.82 0.0
30 14:15 S 9 10.00 Fair CLR 78.8 69.8 74% 81 29.82 0.0
30 13:35 S 9 G 17 10.00 Fair CLR 78.8 69.8 74% 81 29.82 0.0
30 13:15 S 10 10.00 Fair CLR 80.6 69.8 70% 84 29.83 0.0
30 12:55 S 12 10.00 Fair CLR 78.8 71.6 79% 82 29.83 0.0
30 12:35 S 7 10.00 A Few Clouds FEW120 77 71.6 83% 78 29.85 0.0
30 12:15 S 7 10.00 Partly Cloudy FEW050 SCT120 73.4 69.8 89% 29.85 0.0
30 11:55 Vrbl 6 G 13 9.00 Light Rain FEW024 SCT045 BKN075 71.6 69.8 94% 29.86 0.0 0.05
30 11:35 Vrbl 6 G 16 7.00 Light Rain SCT045 BKN075 OVC110 71.6 69.8 94% 29.86 0.0
30 11:15 Vrbl 7 G 13 7.00 Light Rain FEW041 SCT050 BKN070 71.6 69.8 94% 29.86 0.0
30 10:55 SW 7 5.00 Light Rain FEW044 SCT065 BKN075 71.6 69.8 94% 29.88 0.0 0.02
30 10:30 SW 9 9.00 Fair CLR 73.4 69.8 89% 29.85 0.0
30 10:15 SW 8 10.00 A Few Clouds FEW060 FEW090 FEW100 73.4 69.8 89% 29.85 0.0
30 09:55 SW 10 G 17 9.00 Mostly Cloudy FEW055 SCT080 BKN110 73.4 68 83% 29.84 0.0
30 09:35 SW 7 G 13 9.00 Mostly Cloudy FEW045 SCT065 BKN100 73.4 68 83% 29.8 0.0
30 09:15 SW 10 G 20 10.00 A Few Clouds FEW075 FEW120 75.2 66.2 74% 77 29.83 0.0
30 08:55 SW 15 G 22 10.00 Partly Cloudy FEW060 FEW075 SCT120 75.2 66.2 74% 77 29.82 0.0
30 08:35 SW 12 10.00 Fair CLR 77 66.2 69% 79 29.81 0.0
30 08:15 SW 9 G 17 10.00 Fair CLR 77 66.2 69% 79 29.82 0.0
30 07:55 SW 9 10.00 Fair CLR 77 66.2 69% 79 29.81 0.0
30 07:40 SW 10 G 21 10.00 Fair CLR 75.2 66.2 74% 77 29.81 0.0
30 07:15 S 9 G 18 10.00 Fair CLR 75.2 66.2 74% 77 29.81 0.0
30 06:55 SW 13 G 18 10.00 Fair CLR 75.2 66.2 74% 77 29.81 0.0
30 06:35 SW 9 G 16 10.00 Fair CLR 75.2 66.2 74% 77 29.81 0.0
30 05:55 SW 9 10.00 NULL NULL 75.2 66.2 74% 77 29.81 0.0
30 05:35 SW 8 G 17 10.00 NULL NULL 75.2 66.2 74% 77 29.81 0.0
30 05:15 S 9 G 17 10.00 Fair CLR 73.4 66.2 78% 29.81 0.0
30 04:55 S 7 10.00 Fair CLR 75.2 66.2 74% 77 29.81 0.0
30 04:35 S 8 10.00 Fair CLR 75.2 66.2 74% 77 29.81 0.0
30 04:15 S 8 10.00 Fair CLR 75.2 66.2 74% 77 29.82 0.0
30 03:55 Vrbl 6 10.00 Fair CLR 75.2 66.2 74% 77 29.82 0.0
30 03:35 S 7 10.00 Fair CLR 75.2 66.2 74% 77 29.82 0.0
30 03:15 Vrbl 8 10.00 Fair CLR 75.2 66.2 74% 77 29.82 0.0
30 02:55 S 7 10.00 Fair CLR 75.2 66.2 74% 77 29.81 0.0
30 02:35 Vrbl 5 10.00 Fair CLR 75.2 66.2 74% 77 29.81 0.0
30 02:15 S 8 10.00 Fair CLR 75.2 68 78% 76 29.82 0.0
30 01:55 S 7 10.00 Fair CLR 75.2 68 78% 76 29.82 0.0
30 01:35 Vrbl 8 10.00 Fair CLR 75.2 68 78% 76 29.82 0.0
30 01:15 S 6 10.00 Fair CLR 75.2 68 78% 76 29.83 0.0
30 00:55 Vrbl 7 10.00 NULL NULL 75.2 68 78% 76 29.83 0.0
30 00:35 S 6 G 13 10.00 Fair CLR 75.2 68 78% 76 29.83 0.0
30 00:15 S 8 10.00 Fair CLR 75.2 68 78% 76 29.83 0.0
29 23:55 S 6 10.00 Fair CLR 77 68 74% 79 29.83 0.0
29 23:35 S 8 G 16 10.00 Fair CLR 77 68 74% 79 29.83 0.0
29 23:15 S 9 G 15 10.00 Fair CLR 77 68 74% 79 29.83 0.0
29 22:55 S 9 10.00 Fair CLR 77 68 74% 79 29.83 0.0
29 22:35 S 9 G 16 10.00 Fair CLR 78.8 68 70% 81 29.83 0.0
29 22:15 S 9 G 16 10.00 Fair CLR 78.8 69.8 74% 81 29.83 0.0
29 21:55 S 9 G 16 10.00 Fair CLR 77 69.8 79% 79 29.82 0.0
29 21:35 S 9 10.00 Fair CLR 77 69.8 79% 79 29.82 0.0
29 21:15 S 8 10.00 Fair CLR 77 69.8 79% 79 29.82 0.0
29 20:55 Vrbl 8 10.00 Fair CLR 77 71.6 83% 78 29.81 0.0
29 20:35 S 7 10.00 Fair CLR 77 71.6 83% 78 29.81 0.0
29 20:15 S 7 10.00 Fair CLR 77 71.6 83% 78 29.81 0.0
29 19:55 S 7 10.00 Fair CLR 78.8 71.6 79% 82 29.81 0.0
29 19:35 S 8 G 17 10.00 Fair CLR 80.6 71.6 74% 85 29.81 0.0
29 19:15 S 9 10.00 Fair CLR 80.6 71.6 74% 85 29.81 0.0
Date Time (cdt) Wind (mph) Vis. (mi.) Weather Sky Cond. Air Dwpt Max. Min. Relative Humidity Wind Chill (°F) Heat Index (°F) altimeter (in) sea level (mb) 1 hr 3 hr 6 hr
6 hour
Temperature (ºF) Pressure Precipitation (in)